Ravalli County (6S5)
Hamilton, MT
Field Elevation: 3642
Lat: 45°15.05N  Long: 114°07.31W
CTAF/Unicom Freq: 122.8000
   
     For Weather-by-Phone, call 406-375-9149
Weather Advisories
12/23/2014 00:00 Z
Altimeter 30.17" Hg
Wind 177° @ 3 KT
Gusts --
Visibility 10 SM
Temperature 2° C (36° F)
Dewpoint -3° C (27° F)
Relative Humidity 68%
Density Altitude 2,663 feet
Condensation Altitude 6,420 feet
Wind Chill 0° C (32° F)
  Wind and Runways
Indicated Runway = 16
History
 
 
More Info
All DigiWx sites map
NOAA Forecast
 
Airport IQ 5010
(S59) Libby
(79S) Fort Benton
 
about DigiWx
 
FAA Disclaimer: The data displayed is for advisory purposes only and is not to be used for flight planning or operations. For official data, please call 406-375-9149 to hear the current automated AWOS voice message.
  METAR 6S5 230000Z AUTO 18003KT 10SM 02/M03 A3017